sensor_id;sensor_type;location;lat;lon;timestamp;temperature;humidity
69628;DHT22;56850;51.984;5.088;2024-03-02T00:00:16;12.40;64.30
69628;DHT22;56850;51.984;5.088;2024-03-02T00:02:44;12.40;64.40
69628;DHT22;56850;51.984;5.088;2024-03-02T00:05:18;12.40;64.30
69628;DHT22;56850;51.984;5.088;2024-03-02T00:07:57;12.40;64.30
69628;DHT22;56850;51.984;5.088;2024-03-02T00:10:36;12.40;64.40
69628;DHT22;56850;51.984;5.088;2024-03-02T00:13:08;12.30;64.50
69628;DHT22;56850;51.984;5.088;2024-03-02T00:15:54;12.30;64.50
69628;DHT22;56850;51.984;5.088;2024-03-02T00:20:56;12.30;64.60
69628;DHT22;56850;51.984;5.088;2024-03-02T00:23:33;12.30;64.70
69628;DHT22;56850;51.984;5.088;2024-03-02T00:26:00;12.30;64.80
69628;DHT22;56850;51.984;5.088;2024-03-02T00:28:34;12.30;64.80
69628;DHT22;56850;51.984;5.088;2024-03-02T00:31:07;12.30;64.90
69628;DHT22;56850;51.984;5.088;2024-03-02T00:33:48;12.30;64.90
69628;DHT22;56850;51.984;5.088;2024-03-02T00:36:17;12.30;64.90
69628;DHT22;56850;51.984;5.088;2024-03-02T00:38:50;12.30;65.00
69628;DHT22;56850;51.984;5.088;2024-03-02T00:41:24;12.30;65.00
69628;DHT22;56850;51.984;5.088;2024-03-02T00:44:05;12.30;65.10
69628;DHT22;56850;51.984;5.088;2024-03-02T00:46:37;12.30;65.10
69628;DHT22;56850;51.984;5.088;2024-03-02T00:49:11;12.30;65.20
69628;DHT22;56850;51.984;5.088;2024-03-02T00:51:39;12.30;65.10
69628;DHT22;56850;51.984;5.088;2024-03-02T00:54:08;12.30;65.20
69628;DHT22;56850;51.984;5.088;2024-03-02T00:56:35;12.30;65.20
69628;DHT22;56850;51.984;5.088;2024-03-02T00:59:02;12.20;65.20
69628;DHT22;56850;51.984;5.088;2024-03-02T01:01:29;12.30;65.30
69628;DHT22;56850;51.984;5.088;2024-03-02T01:03:56;12.20;65.30
69628;DHT22;56850;51.984;5.088;2024-03-02T01:06:23;12.20;65.30
69628;DHT22;56850;51.984;5.088;2024-03-02T01:08:50;12.20;65.40
69628;DHT22;56850;51.984;5.088;2024-03-02T01:11:19;12.20;65.40
69628;DHT22;56850;51.984;5.088;2024-03-02T01:13:50;12.20;65.40
69628;DHT22;56850;51.984;5.088;2024-03-02T01:16:17;12.20;65.40
69628;DHT22;56850;51.984;5.088;2024-03-02T01:18:44;12.20;65.50
69628;DHT22;56850;51.984;5.088;2024-03-02T01:21:11;12.20;65.40
69628;DHT22;56850;51.984;5.088;2024-03-02T01:23:38;12.20;65.50
69628;DHT22;56850;51.984;5.088;2024-03-02T01:26:05;12.20;65.50
69628;DHT22;56850;51.984;5.088;2024-03-02T01:28:32;12.20;65.50
69628;DHT22;56850;51.984;5.088;2024-03-02T01:30:59;12.20;65.60
69628;DHT22;56850;51.984;5.088;2024-03-02T01:33:26;12.20;65.50
69628;DHT22;56850;51.984;5.088;2024-03-02T01:35:53;12.20;65.60
69628;DHT22;56850;51.984;5.088;2024-03-02T01:38:20;12.20;65.60
69628;DHT22;56850;51.984;5.088;2024-03-02T01:40:47;12.20;65.60
69628;DHT22;56850;51.984;5.088;2024-03-02T01:43:14;12.20;65.60
69628;DHT22;56850;51.984;5.088;2024-03-02T01:45:41;12.20;65.60
69628;DHT22;56850;51.984;5.088;2024-03-02T01:48:08;12.20;65.60
69628;DHT22;56850;51.984;5.088;2024-03-02T01:50:35;12.20;65.60
69628;DHT22;56850;51.984;5.088;2024-03-02T01:53:02;12.20;65.60
69628;DHT22;56850;51.984;5.088;2024-03-02T01:55:30;12.20;65.60
69628;DHT22;56850;51.984;5.088;2024-03-02T01:57:58;12.20;65.70
69628;DHT22;56850;51.984;5.088;2024-03-02T02:00:26;12.20;65.60
69628;DHT22;56850;51.984;5.088;2024-03-02T02:02:54;12.20;65.70
69628;DHT22;56850;51.984;5.088;2024-03-02T02:05:21;12.20;65.70
69628;DHT22;56850;51.984;5.088;2024-03-02T02:07:48;12.20;65.70
69628;DHT22;56850;51.984;5.088;2024-03-02T02:10:15;12.10;65.70
69628;DHT22;56850;51.984;5.088;2024-03-02T02:12:42;12.10;65.70
69628;DHT22;56850;51.984;5.088;2024-03-02T02:15:36;12.10;65.70
69628;DHT22;56850;51.984;5.088;2024-03-02T02:18:03;12.10;65.80
69628;DHT22;56850;51.984;5.088;2024-03-02T02:20:31;12.10;65.70
69628;DHT22;56850;51.984;5.088;2024-03-02T02:23:01;12.10;65.80
69628;DHT22;56850;51.984;5.088;2024-03-02T02:25:29;12.10;65.80
69628;DHT22;56850;51.984;5.088;2024-03-02T02:27:57;12.10;65.70
69628;DHT22;56850;51.984;5.088;2024-03-02T02:30:26;12.10;65.80
69628;DHT22;56850;51.984;5.088;2024-03-02T02:32:54;12.10;65.70
69628;DHT22;56850;51.984;5.088;2024-03-02T02:35:21;12.10;65.80
69628;DHT22;56850;51.984;5.088;2024-03-02T02:37:52;12.10;65.80
69628;DHT22;56850;51.984;5.088;2024-03-02T02:40:20;12.10;65.80
69628;DHT22;56850;51.984;5.088;2024-03-02T02:42:47;12.10;65.80
69628;DHT22;56850;51.984;5.088;2024-03-02T02:45:15;12.10;65.80
69628;DHT22;56850;51.984;5.088;2024-03-02T02:47:42;12.10;65.80
69628;DHT22;56850;51.984;5.088;2024-03-02T02:50:11;12.10;65.80
69628;DHT22;56850;51.984;5.088;2024-03-02T02:52:39;12.10;65.80
69628;DHT22;56850;51.984;5.088;2024-03-02T02:55:12;12.10;65.80
69628;DHT22;56850;51.984;5.088;2024-03-02T02:57:40;12.10;65.80
69628;DHT22;56850;51.984;5.088;2024-03-02T03:00:11;12.10;65.80
69628;DHT22;56850;51.984;5.088;2024-03-02T03:02:45;12.10;65.80
69628;DHT22;56850;51.984;5.088;2024-03-02T03:05:14;12.10;65.80
69628;DHT22;56850;51.984;5.088;2024-03-02T03:07:42;12.10;65.80
69628;DHT22;56850;51.984;5.088;2024-03-02T03:10:09;12.10;65.80
69628;DHT22;56850;51.984;5.088;2024-03-02T03:12:36;12.10;65.70
69628;DHT22;56850;51.984;5.088;2024-03-02T03:15:04;12.10;65.80
69628;DHT22;56850;51.984;5.088;2024-03-02T03:17:31;12.10;65.80
69628;DHT22;56850;51.984;5.088;2024-03-02T03:19:58;12.10;65.80
69628;DHT22;56850;51.984;5.088;2024-03-02T03:22:25;12.10;65.80
69628;DHT22;56850;51.984;5.088;2024-03-02T03:24:53;12.10;65.80
69628;DHT22;56850;51.984;5.088;2024-03-02T03:27:20;12.10;65.70
69628;DHT22;56850;51.984;5.088;2024-03-02T03:29:47;12.10;65.70
69628;DHT22;56850;51.984;5.088;2024-03-02T03:32:14;12.00;65.80
69628;DHT22;56850;51.984;5.088;2024-03-02T03:34:40;12.10;65.80
69628;DHT22;56850;51.984;5.088;2024-03-02T03:37:08;12.00;65.80
69628;DHT22;56850;51.984;5.088;2024-03-02T03:39:35;12.00;65.80
69628;DHT22;56850;51.984;5.088;2024-03-02T03:42:05;12.00;65.70
69628;DHT22;56850;51.984;5.088;2024-03-02T03:44:32;12.00;65.70
69628;DHT22;56850;51.984;5.088;2024-03-02T03:46:59;12.00;65.80
69628;DHT22;56850;51.984;5.088;2024-03-02T03:49:27;12.00;65.70
69628;DHT22;56850;51.984;5.088;2024-03-02T03:51:54;12.00;65.80
69628;DHT22;56850;51.984;5.088;2024-03-02T03:54:21;12.00;65.80
69628;DHT22;56850;51.984;5.088;2024-03-02T03:56:48;12.00;65.80
69628;DHT22;56850;51.984;5.088;2024-03-02T03:59:15;12.00;65.80
69628;DHT22;56850;51.984;5.088;2024-03-02T04:01:42;12.00;65.80
69628;DHT22;56850;51.984;5.088;2024-03-02T04:04:09;12.00;65.70
69628;DHT22;56850;51.984;5.088;2024-03-02T04:06:36;12.00;65.80
69628;DHT22;56850;51.984;5.088;2024-03-02T04:09:02;12.00;65.70
69628;DHT22;56850;51.984;5.088;2024-03-02T04:11:30;12.00;65.70
69628;DHT22;56850;51.984;5.088;2024-03-02T04:13:58;12.00;65.70
69628;DHT22;56850;51.984;5.088;2024-03-02T04:16:25;12.00;65.70
69628;DHT22;56850;51.984;5.088;2024-03-02T04:18:52;12.00;65.70
69628;DHT22;56850;51.984;5.088;2024-03-02T04:21:22;12.00;65.70
69628;DHT22;56850;51.984;5.088;2024-03-02T04:23:49;12.00;65.70
69628;DHT22;56850;51.984;5.088;2024-03-02T04:26:16;12.00;65.70
69628;DHT22;56850;51.984;5.088;2024-03-02T04:28:46;12.00;65.80
69628;DHT22;56850;51.984;5.088;2024-03-02T04:31:15;12.00;65.80
69628;DHT22;56850;51.984;5.088;2024-03-02T04:33:42;12.00;65.80
69628;DHT22;56850;51.984;5.088;2024-03-02T04:36:09;12.00;65.70
69628;DHT22;56850;51.984;5.088;2024-03-02T04:38:38;12.00;65.70
69628;DHT22;56850;51.984;5.088;2024-03-02T04:41:06;12.00;65.70
69628;DHT22;56850;51.984;5.088;2024-03-02T04:43:33;11.90;65.70
69628;DHT22;56850;51.984;5.088;2024-03-02T04:46:00;11.90;65.70
69628;DHT22;56850;51.984;5.088;2024-03-02T04:48:28;11.90;65.80
69628;DHT22;56850;51.984;5.088;2024-03-02T04:50:55;11.90;65.80
69628;DHT22;56850;51.984;5.088;2024-03-02T04:53:22;12.00;65.70
69628;DHT22;56850;51.984;5.088;2024-03-02T04:55:48;11.90;65.80
69628;DHT22;56850;51.984;5.088;2024-03-02T04:58:38;11.90;65.80
69628;DHT22;56850;51.984;5.088;2024-03-02T05:01:05;11.90;65.70
69628;DHT22;56850;51.984;5.088;2024-03-02T05:03:32;11.90;65.70
69628;DHT22;56850;51.984;5.088;2024-03-02T05:06:01;11.90;65.70
69628;DHT22;56850;51.984;5.088;2024-03-02T05:08:28;11.90;65.70
69628;DHT22;56850;51.984;5.088;2024-03-02T05:10:55;11.90;65.70
69628;DHT22;56850;51.984;5.088;2024-03-02T05:13:42;11.90;65.70
69628;DHT22;56850;51.984;5.088;2024-03-02T05:16:08;11.90;65.70
69628;DHT22;56850;51.984;5.088;2024-03-02T05:18:37;11.90;65.80
69628;DHT22;56850;51.984;5.088;2024-03-02T05:21:04;11.90;65.70
69628;DHT22;56850;51.984;5.088;2024-03-02T05:23:31;11.90;65.60
69628;DHT22;56850;51.984;5.088;2024-03-02T05:25:58;11.90;65.70
69628;DHT22;56850;51.984;5.088;2024-03-02T05:28:25;11.90;65.70
69628;DHT22;56850;51.984;5.088;2024-03-02T05:30:52;11.90;65.70
69628;DHT22;56850;51.984;5.088;2024-03-02T05:33:19;11.90;65.70
69628;DHT22;56850;51.984;5.088;2024-03-02T05:35:49;11.80;65.70
69628;DHT22;56850;51.984;5.088;2024-03-02T05:38:19;11.80;65.60
69628;DHT22;56850;51.984;5.088;2024-03-02T05:40:45;11.80;65.60
69628;DHT22;56850;51.984;5.088;2024-03-02T05:43:12;11.80;65.50
69628;DHT22;56850;51.984;5.088;2024-03-02T05:45:39;11.80;65.60
69628;DHT22;56850;51.984;5.088;2024-03-02T05:48:07;11.80;65.60
69628;DHT22;56850;51.984;5.088;2024-03-02T05:50:34;11.80;65.60
69628;DHT22;56850;51.984;5.088;2024-03-02T05:53:01;11.80;65.60
69628;DHT22;56850;51.984;5.088;2024-03-02T05:55:28;11.80;65.50
69628;DHT22;56850;51.984;5.088;2024-03-02T05:57:55;11.80;65.50
69628;DHT22;56850;51.984;5.088;2024-03-02T06:00:25;11.80;65.50
69628;DHT22;56850;51.984;5.088;2024-03-02T06:02:52;11.80;65.50
69628;DHT22;56850;51.984;5.088;2024-03-02T06:05:19;11.80;65.60
69628;DHT22;56850;51.984;5.088;2024-03-02T06:07:46;11.80;65.60
69628;DHT22;56850;51.984;5.088;2024-03-02T06:10:13;11.80;65.50
69628;DHT22;56850;51.984;5.088;2024-03-02T06:12:40;11.80;65.60
69628;DHT22;56850;51.984;5.088;2024-03-02T06:15:08;11.80;65.60
69628;DHT22;56850;51.984;5.088;2024-03-02T06:17:35;11.80;65.50
69628;DHT22;56850;51.984;5.088;2024-03-02T06:20:03;11.80;65.50
69628;DHT22;56850;51.984;5.088;2024-03-02T06:22:31;11.80;65.60
69628;DHT22;56850;51.984;5.088;2024-03-02T06:24:58;11.80;65.50
69628;DHT22;56850;51.984;5.088;2024-03-02T06:27:25;11.80;65.50
69628;DHT22;56850;51.984;5.088;2024-03-02T06:29:51;11.70;65.50
69628;DHT22;56850;51.984;5.088;2024-03-02T06:32:18;11.80;65.50
69628;DHT22;56850;51.984;5.088;2024-03-02T06:34:45;11.70;65.40
69628;DHT22;56850;51.984;5.088;2024-03-02T06:37:12;11.70;65.40
69628;DHT22;56850;51.984;5.088;2024-03-02T06:39:39;11.70;65.50
69628;DHT22;56850;51.984;5.088;2024-03-02T06:42:06;11.70;65.50
69628;DHT22;56850;51.984;5.088;2024-03-02T06:44:34;11.70;65.50
69628;DHT22;56850;51.984;5.088;2024-03-02T06:47:00;11.70;65.50
69628;DHT22;56850;51.984;5.088;2024-03-02T06:49:30;11.70;65.50
69628;DHT22;56850;51.984;5.088;2024-03-02T06:51:57;11.70;65.50
69628;DHT22;56850;51.984;5.088;2024-03-02T06:54:24;11.70;65.40
69628;DHT22;56850;51.984;5.088;2024-03-02T06:56:51;11.70;65.50
69628;DHT22;56850;51.984;5.088;2024-03-02T06:59:17;11.70;65.40
69628;DHT22;56850;51.984;5.088;2024-03-02T07:01:44;11.70;65.40
69628;DHT22;56850;51.984;5.088;2024-03-02T07:04:11;11.70;65.40
69628;DHT22;56850;51.984;5.088;2024-03-02T07:06:38;11.70;65.40
69628;DHT22;56850;51.984;5.088;2024-03-02T07:09:05;11.70;65.30
69628;DHT22;56850;51.984;5.088;2024-03-02T07:11:33;11.70;65.40
69628;DHT22;56850;51.984;5.088;2024-03-02T07:14:01;11.70;65.30
69628;DHT22;56850;51.984;5.088;2024-03-02T07:16:28;11.70;65.30
69628;DHT22;56850;51.984;5.088;2024-03-02T07:18:56;11.70;65.30
69628;DHT22;56850;51.984;5.088;2024-03-02T07:21:24;11.60;65.30
69628;DHT22;56850;51.984;5.088;2024-03-02T07:23:51;11.60;65.40
69628;DHT22;56850;51.984;5.088;2024-03-02T07:26:18;11.70;65.40
69628;DHT22;56850;51.984;5.088;2024-03-02T07:28:48;11.60;65.40
69628;DHT22;56850;51.984;5.088;2024-03-02T07:31:15;11.60;65.40
69628;DHT22;56850;51.984;5.088;2024-03-02T07:33:44;11.60;65.40
69628;DHT22;56850;51.984;5.088;2024-03-02T07:36:13;11.60;65.40
69628;DHT22;56850;51.984;5.088;2024-03-02T07:38:40;11.60;65.40
69628;DHT22;56850;51.984;5.088;2024-03-02T07:41:08;11.60;65.30
69628;DHT22;56850;51.984;5.088;2024-03-02T07:43:35;11.60;65.40
69628;DHT22;56850;51.984;5.088;2024-03-02T07:46:02;11.60;65.30
69628;DHT22;56850;51.984;5.088;2024-03-02T07:48:30;11.60;65.20
69628;DHT22;56850;51.984;5.088;2024-03-02T07:50:57;11.60;65.20
69628;DHT22;56850;51.984;5.088;2024-03-02T07:53:24;11.60;65.30
69628;DHT22;56850;51.984;5.088;2024-03-02T07:55:51;11.60;65.30
69628;DHT22;56850;51.984;5.088;2024-03-02T07:58:18;11.60;65.20
69628;DHT22;56850;51.984;5.088;2024-03-02T08:00:46;11.60;65.30
69628;DHT22;56850;51.984;5.088;2024-03-02T08:03:14;11.60;65.30
69628;DHT22;56850;51.984;5.088;2024-03-02T08:05:41;11.60;65.20
69628;DHT22;56850;51.984;5.088;2024-03-02T08:08:08;11.60;65.30
69628;DHT22;56850;51.984;5.088;2024-03-02T08:10:35;11.60;65.20
69628;DHT22;56850;51.984;5.088;2024-03-02T08:13:02;11.60;65.30
69628;DHT22;56850;51.984;5.088;2024-03-02T08:15:29;11.60;65.20
69628;DHT22;56850;51.984;5.088;2024-03-02T08:17:56;11.60;65.20
69628;DHT22;56850;51.984;5.088;2024-03-02T08:20:23;11.60;65.20
69628;DHT22;56850;51.984;5.088;2024-03-02T08:22:50;11.60;65.20
69628;DHT22;56850;51.984;5.088;2024-03-02T08:25:17;11.60;65.20
69628;DHT22;56850;51.984;5.088;2024-03-02T08:27:44;11.60;65.10
69628;DHT22;56850;51.984;5.088;2024-03-02T08:30:12;11.60;65.20
69628;DHT22;56850;51.984;5.088;2024-03-02T08:32:39;11.60;65.20
69628;DHT22;56850;51.984;5.088;2024-03-02T08:35:07;11.60;65.20
69628;DHT22;56850;51.984;5.088;2024-03-02T08:37:34;11.60;65.10
69628;DHT22;56850;51.984;5.088;2024-03-02T08:40:01;11.60;65.20
69628;DHT22;56850;51.984;5.088;2024-03-02T08:42:30;11.60;65.20
69628;DHT22;56850;51.984;5.088;2024-03-02T08:44:57;11.60;65.10
69628;DHT22;56850;51.984;5.088;2024-03-02T08:47:24;11.60;65.20
69628;DHT22;56850;51.984;5.088;2024-03-02T08:49:51;11.60;65.20
69628;DHT22;56850;51.984;5.088;2024-03-02T08:52:18;11.60;65.10
69628;DHT22;56850;51.984;5.088;2024-03-02T08:54:45;11.60;65.20
69628;DHT22;56850;51.984;5.088;2024-03-02T08:57:12;11.60;65.10
69628;DHT22;56850;51.984;5.088;2024-03-02T08:59:39;11.60;65.10
69628;DHT22;56850;51.984;5.088;2024-03-02T09:02:06;11.60;65.10
69628;DHT22;56850;51.984;5.088;2024-03-02T09:04:35;11.60;65.10
69628;DHT22;56850;51.984;5.088;2024-03-02T09:07:02;11.60;65.10
69628;DHT22;56850;51.984;5.088;2024-03-02T09:09:29;11.60;65.00
69628;DHT22;56850;51.984;5.088;2024-03-02T09:11:58;11.60;65.00
69628;DHT22;56850;51.984;5.088;2024-03-02T09:14:25;11.70;64.90
69628;DHT22;56850;51.984;5.088;2024-03-02T09:16:52;11.70;64.90
69628;DHT22;56850;51.984;5.088;2024-03-02T09:19:19;11.70;64.80
69628;DHT22;56850;51.984;5.088;2024-03-02T09:21:46;11.60;64.20
69628;DHT22;56850;51.984;5.088;2024-03-02T09:24:13;11.60;63.70
69628;DHT22;56850;51.984;5.088;2024-03-02T09:26:44;11.50;63.50
69628;DHT22;56850;51.984;5.088;2024-03-02T09:29:11;11.40;63.40
69628;DHT22;56850;51.984;5.088;2024-03-02T09:31:42;11.30;63.50
69628;DHT22;56850;51.984;5.088;2024-03-02T09:34:12;11.30;63.40
69628;DHT22;56850;51.984;5.088;2024-03-02T09:36:41;11.30;63.60
69628;DHT22;56850;51.984;5.088;2024-03-02T09:39:08;11.30;63.90
69628;DHT22;56850;51.984;5.088;2024-03-02T09:41:39;11.30;64.10
69628;DHT22;56850;51.984;5.088;2024-03-02T09:44:06;11.40;64.30
69628;DHT22;56850;51.984;5.088;2024-03-02T09:46:33;11.40;64.50
69628;DHT22;56850;51.984;5.088;2024-03-02T09:49:00;11.50;64.50
69628;DHT22;56850;51.984;5.088;2024-03-02T09:51:27;11.50;64.60
69628;DHT22;56850;51.984;5.088;2024-03-02T09:53:55;11.60;64.20
69628;DHT22;56850;51.984;5.088;2024-03-02T09:56:39;11.60;64.30
69628;DHT22;56850;51.984;5.088;2024-03-02T09:59:06;11.60;64.30
69628;DHT22;56850;51.984;5.088;2024-03-02T10:02:01;11.70;64.30
69628;DHT22;56850;51.984;5.088;2024-03-02T10:04:30;11.70;63.70
69628;DHT22;56850;51.984;5.088;2024-03-02T10:07:10;11.70;63.60
69628;DHT22;56850;51.984;5.088;2024-03-02T10:09:39;11.70;63.10
69628;DHT22;56850;51.984;5.088;2024-03-02T10:12:08;11.70;63.00
69628;DHT22;56850;51.984;5.088;2024-03-02T10:14:35;11.70;62.80
69628;DHT22;56850;51.984;5.088;2024-03-02T10:17:07;11.80;62.80
69628;DHT22;56850;51.984;5.088;2024-03-02T10:19:34;11.80;62.70
69628;DHT22;56850;51.984;5.088;2024-03-02T10:22:03;11.80;62.90
69628;DHT22;56850;51.984;5.088;2024-03-02T10:24:44;11.90;63.00
69628;DHT22;56850;51.984;5.088;2024-03-02T10:27:23;12.00;63.10
69628;DHT22;56850;51.984;5.088;2024-03-02T10:29:50;12.00;63.10
69628;DHT22;56850;51.984;5.088;2024-03-02T10:32:17;12.00;63.20
69628;DHT22;56850;51.984;5.088;2024-03-02T10:34:45;12.10;63.00
69628;DHT22;56850;51.984;5.088;2024-03-02T10:37:12;12.10;63.10
69628;DHT22;56850;51.984;5.088;2024-03-02T10:39:40;12.10;63.10
69628;DHT22;56850;51.984;5.088;2024-03-02T10:42:08;12.20;63.20
69628;DHT22;56850;51.984;5.088;2024-03-02T10:44:35;12.20;63.20
69628;DHT22;56850;51.984;5.088;2024-03-02T10:47:04;12.20;62.90
69628;DHT22;56850;51.984;5.088;2024-03-02T10:49:32;12.20;62.40
69628;DHT22;56850;51.984;5.088;2024-03-02T10:51:59;12.30;62.50
69628;DHT22;56850;51.984;5.088;2024-03-02T10:54:27;12.30;62.60
69628;DHT22;56850;51.984;5.088;2024-03-02T10:57:04;12.30;62.50
69628;DHT22;56850;51.984;5.088;2024-03-02T10:59:36;12.40;62.10
69628;DHT22;56850;51.984;5.088;2024-03-02T11:02:04;12.40;61.90
69628;DHT22;56850;51.984;5.088;2024-03-02T11:04:34;12.30;61.00
69628;DHT22;56850;51.984;5.088;2024-03-02T11:07:07;12.40;60.10
69628;DHT22;56850;51.984;5.088;2024-03-02T11:09:52;12.30;59.70
69628;DHT22;56850;51.984;5.088;2024-03-02T11:12:28;12.40;60.30
69628;DHT22;56850;51.984;5.088;2024-03-02T11:14:56;12.40;60.70
69628;DHT22;56850;51.984;5.088;2024-03-02T11:17:25;12.50;61.00
69628;DHT22;56850;51.984;5.088;2024-03-02T11:19:53;12.50;61.30
69628;DHT22;56850;51.984;5.088;2024-03-02T11:22:20;12.60;61.50
